Terminal Aerodrome Forecast
Issued by NWS Denver/Boulder, CO

Home | Current Version | Previous Version | Text Only | Print | Product List | Glossary On
Versions: 1 2 3 4 5 6 7 8 9 10 11 12 13 14 15 16 17 18 19 20 21 22 23 24 25 26 27 28 29 30 31 32 33 34 35 36 37 38 39
000
FTUS45 KBOU 301418 AAA
TAFDEN
TAF AMD
KDEN 301418Z 3014/3118 25010KT P6SM FEW220
     FM301700 09007KT P6SM FEW090 SCT220
     FM302100 31010KT P6SM SCT080 BKN140
      TEMPO 3021/3024 VRB20G35KT -TSRA BKN080CB
     FM310200 25007KT P6SM FEW090 SCT140
     FM310600 36012KT P6SM FEW140 SCT220
     FM311000 35008KT P6SM SCT008 OVC014
     FM311600 05007KT P6SM SCT012 BKN022=

USA.gov is the U.S. government's official web portal to all federal, state and local government web resources and services.